Terminal Aerodrome Forecast
Issued by NWS

Home | Current Version | Previous Version | Text Only | Print | Product List | Glossary On
Versions: 1 2 3 4 5 6 7 8 9 10 11 12
227
FTUS43 KOAX 111741
TAFBFF
TAF
KBFF 111741Z 1118/1218 30015G22KT P6SM SCT150
     FM120000 33006KT P6SM BKN150
     FM121300 36005KT P6SM BKN035 OVC080=

USA.gov is the U.S. government's official web portal to all federal, state and local government web resources and services.